Terminal Aerodrome Forecast
Issued by NWS

Home | Current Version | Previous Version | Text Only | Print | Product List | Glossary On
Versions: 1 2 3 4 5 6 7 8 9 10 11 12 13
000
FTUS44 KCRP 192300
TAFLRD
TAF
KLRD 192320Z 2000/2024 14017G23KT P6SM SCT250
     FM201000 15011KT P6SM SCT015 SCT250
     FM201600 16015KT P6SM SCT040 SCT150=

USA.gov is the U.S. government's official web portal to all federal, state and local government web resources and services.